Spring Valley, Nevada
Current Conditions -  °F | °C
As of 10:56 AM on Friday 28 Nov 2014 (Local Time) from KLAS Reporting Station
Few Clouds Few Clouds  
Wind Chill: 60°   Ceiling: Unl
Heat Index: 60°   Visibility: 10mi
Dew Point: 21°   Wind: 3mph
Humidity: 22%   Direction: 180°S
Pressure: 30.02"   Gusts: NA
Location:  36.11°N, 115.24°W
Report Text: KLAS 281856Z 18003KT 10SM FEW250 16/M06 A3002 RMK AO2 SLP161 T01561061
Loading
Personal Weather Stations






























Interactive Weather Map New forecast layout! Learn more

10-Day Weather Forecast

Advertisements
Track Severe Weather on mobile